createdAt,value
2023-05-13T00:00:07.349Z,3.60
2023-05-13T00:02:37.154Z,3.40
2023-05-13T00:05:06.293Z,3.85
2023-05-13T00:07:34.942Z,3.65
2023-05-13T00:10:05.410Z,3.67
2023-05-13T00:12:33.913Z,3.53
2023-05-13T00:15:03.328Z,3.78
2023-05-13T00:17:32.001Z,4.50
2023-05-13T00:20:01.084Z,3.53
2023-05-13T00:22:29.570Z,3.95
2023-05-13T00:24:58.066Z,4.18
2023-05-13T00:27:27.648Z,3.80
2023-05-13T00:29:55.851Z,4.80
2023-05-13T00:32:24.443Z,3.97
2023-05-13T00:34:53.004Z,4.47
2023-05-13T00:37:21.501Z,4.22
2023-05-13T00:39:50.121Z,4.72
2023-05-13T00:42:18.828Z,4.45
2023-05-13T00:44:48.479Z,4.55
2023-05-13T00:47:17.805Z,4.70
2023-05-13T00:49:46.524Z,4.68
2023-05-13T00:52:15.105Z,5.20
2023-05-13T00:54:43.593Z,5.60
2023-05-13T00:57:12.228Z,4.90
2023-05-13T00:59:40.855Z,4.97
2023-05-13T01:02:20.353Z,5.03
2023-05-13T01:05:03.996Z,5.35
2023-05-13T01:07:47.604Z,4.93
2023-05-13T01:10:24.838Z,4.93
2023-05-13T01:12:59.113Z,5.72
2023-05-13T01:15:28.697Z,5.43
2023-05-13T01:18:06.591Z,4.65
2023-05-13T01:20:36.326Z,5.88
2023-05-13T01:23:06.687Z,6.20
2023-05-13T01:25:36.874Z,5.05
2023-05-13T01:28:06.090Z,5.63
2023-05-13T01:30:36.339Z,6.07
2023-05-13T01:33:07.142Z,5.40
2023-05-13T01:35:36.128Z,5.80
2023-05-13T01:38:07.401Z,4.55
2023-05-13T01:40:36.503Z,5.50
2023-05-13T01:43:09.082Z,5.30
2023-05-13T01:45:39.033Z,5.65
2023-05-13T01:48:08.138Z,5.28
2023-05-13T01:50:44.685Z,5.93
2023-05-13T01:53:14.641Z,5.45
2023-05-13T01:55:43.121Z,5.10
2023-05-13T01:58:11.745Z,4.72
2023-05-13T02:00:41.346Z,5.07
2023-05-13T02:03:10.055Z,5.53
2023-05-13T02:05:38.694Z,5.82
2023-05-13T02:08:09.432Z,5.72
2023-05-13T02:10:41.161Z,4.97
2023-05-13T02:13:09.776Z,5.22
2023-05-13T02:15:38.401Z,5.63
2023-05-13T02:18:07.106Z,4.57
2023-05-13T02:20:35.634Z,5.40
2023-05-13T02:23:04.277Z,5.50
2023-05-13T02:25:32.533Z,4.28
2023-05-13T02:28:02.681Z,5.03
2023-05-13T02:30:31.249Z,5.63
2023-05-13T02:33:00.578Z,5.55
2023-05-13T02:35:30.132Z,5.18
2023-05-13T02:38:00.862Z,5.20
2023-05-13T02:40:29.847Z,5.55
2023-05-13T02:42:59.077Z,5.15
2023-05-13T02:45:42.416Z,5.10
2023-05-13T02:48:12.246Z,5.60
2023-05-13T02:50:41.028Z,5.20
2023-05-13T02:53:11.361Z,5.10
2023-05-13T02:55:44.768Z,5.53
2023-05-13T02:58:13.507Z,4.38
2023-05-13T03:00:43.862Z,5.05
2023-05-13T03:03:12.492Z,5.68
2023-05-13T03:05:41.130Z,5.43
2023-05-13T03:08:09.666Z,5.32
2023-05-13T03:10:39.728Z,4.90
2023-05-13T03:13:08.317Z,5.15
2023-05-13T03:15:36.966Z,5.60
2023-05-13T03:18:06.876Z,6.18
2023-05-13T03:20:36.064Z,5.07
2023-05-13T03:23:05.654Z,5.32
2023-05-13T03:25:35.663Z,5.35
2023-05-13T03:28:05.038Z,5.85
2023-05-13T03:30:38.373Z,5.03
2023-05-13T03:33:13.148Z,5.72
2023-05-13T03:35:42.286Z,5.28
2023-05-13T03:38:10.825Z,5.20
2023-05-13T03:40:44.510Z,5.63
2023-05-13T03:43:13.115Z,5.30
2023-05-13T03:45:47.609Z,5.72
2023-05-13T03:48:20.787Z,4.78
2023-05-13T03:50:49.543Z,5.00
2023-05-13T03:53:20.290Z,5.68
2023-05-13T03:55:49.215Z,6.07
2023-05-13T03:58:19.023Z,5.53
2023-05-13T04:00:47.603Z,5.70
2023-05-13T04:03:17.287Z,5.50
2023-05-13T04:05:48.133Z,5.18
2023-05-13T04:08:16.765Z,6.05
2023-05-13T04:10:46.789Z,5.47
2023-05-13T04:13:15.329Z,5.32
2023-05-13T04:15:44.716Z,5.05
2023-05-13T04:18:13.321Z,5.72
2023-05-13T04:20:41.782Z,4.97
2023-05-13T04:23:11.404Z,5.75
2023-05-13T04:25:39.952Z,6.20
2023-05-13T04:28:08.436Z,4.50
2023-05-13T04:30:41.361Z,5.07
2023-05-13T04:33:09.915Z,5.38
2023-05-13T04:35:39.765Z,5.78
2023-05-13T04:38:10.815Z,5.28
2023-05-13T04:40:40.240Z,5.68
2023-05-13T04:43:12.350Z,5.38
2023-05-13T04:46:00.529Z,5.40
2023-05-13T04:48:29.214Z,5.60
2023-05-13T04:50:59.527Z,5.35
2023-05-13T04:53:30.168Z,5.20
2023-05-13T04:56:02.178Z,5.35
2023-05-13T04:58:32.242Z,5.65
2023-05-13T05:01:00.806Z,5.95
2023-05-13T05:03:29.555Z,5.90
2023-05-13T05:05:58.171Z,6.20
2023-05-13T05:08:28.710Z,6.82
2023-05-13T05:11:01.892Z,6.10
2023-05-13T05:13:32.483Z,5.63
2023-05-13T05:16:01.231Z,5.82
2023-05-13T05:18:31.753Z,5.70
2023-05-13T05:21:02.426Z,6.15
2023-05-13T05:23:31.345Z,6.30
2023-05-13T05:26:10.944Z,6.07
2023-05-13T05:28:43.319Z,5.70
2023-05-13T05:31:12.238Z,6.60
2023-05-13T05:33:41.426Z,5.85
2023-05-13T05:36:10.278Z,5.80
2023-05-13T05:38:38.798Z,6.35
2023-05-13T05:41:09.781Z,5.18
2023-05-13T05:43:38.435Z,5.18
2023-05-13T05:46:07.053Z,6.30
2023-05-13T05:48:35.883Z,6.03
2023-05-13T05:51:05.620Z,5.57
2023-05-13T05:53:41.279Z,6.18
2023-05-13T05:56:13.702Z,6.32
2023-05-13T05:58:42.547Z,5.90
2023-05-13T06:01:11.146Z,5.85
2023-05-13T06:03:40.050Z,5.63
2023-05-13T06:06:08.869Z,5.97
2023-05-13T06:08:37.124Z,5.85
2023-05-13T06:11:05.836Z,5.30
2023-05-13T06:13:35.470Z,5.55
2023-05-13T06:16:04.147Z,5.05
2023-05-13T06:18:32.726Z,5.18
2023-05-13T06:21:01.336Z,5.05
2023-05-13T06:23:29.833Z,4.20
2023-05-13T06:25:59.263Z,4.47
2023-05-13T06:28:27.778Z,4.22
2023-05-13T06:30:57.403Z,4.85
2023-05-13T06:33:26.058Z,4.10
2023-05-13T06:35:54.669Z,3.80
2023-05-13T06:38:24.723Z,3.95
2023-05-13T06:40:58.557Z,3.72
2023-05-13T06:43:34.026Z,3.83
2023-05-13T06:46:14.580Z,3.22
2023-05-13T06:48:43.193Z,3.42
2023-05-13T06:51:12.358Z,2.90
2023-05-13T06:53:40.631Z,4.07
2023-05-13T06:56:09.447Z,2.95
2023-05-13T06:58:38.024Z,3.10
2023-05-13T07:01:06.754Z,3.53
2023-05-13T07:03:37.578Z,7.18
2023-05-13T07:06:06.420Z,4.18
2023-05-13T07:08:34.976Z,2.83
2023-05-13T07:11:03.521Z,3.38
2023-05-13T07:13:34.629Z,3.30
2023-05-13T07:16:03.460Z,3.53
2023-05-13T07:18:32.061Z,3.50
2023-05-13T07:21:01.747Z,3.63
2023-05-13T07:23:31.469Z,2.92
2023-05-13T07:26:00.102Z,2.70
2023-05-13T07:28:28.674Z,3.05
2023-05-13T07:30:57.291Z,2.97
2023-05-13T07:33:25.850Z,2.17
2023-05-13T07:35:54.932Z,2.35
2023-05-13T07:38:24.784Z,2.30
2023-05-13T07:40:53.360Z,2.50
2023-05-13T07:43:23.943Z,2.35
2023-05-13T07:45:52.582Z,2.00
2023-05-13T07:48:21.091Z,2.00
2023-05-13T07:50:49.684Z,1.77
2023-05-13T07:53:19.651Z,2.20
2023-05-13T07:55:49.613Z,1.90
2023-05-13T07:58:18.580Z,1.90
2023-05-13T08:00:46.916Z,1.65
2023-05-13T08:03:15.743Z,1.58
2023-05-13T08:05:44.427Z,1.50
2023-05-13T08:08:12.940Z,1.40
2023-05-13T08:10:41.819Z,2.30
2023-05-13T08:13:11.377Z,2.35
2023-05-13T08:15:39.912Z,2.80
2023-05-13T08:18:08.523Z,1.90
2023-05-13T08:20:37.294Z,1.95
2023-05-13T08:23:06.198Z,2.00
2023-05-13T08:25:34.782Z,1.77
2023-05-13T08:28:03.663Z,1.80
2023-05-13T08:30:33.303Z,1.75
2023-05-13T08:33:01.834Z,2.10
2023-05-13T08:35:30.343Z,1.67
2023-05-13T08:37:58.790Z,1.98
2023-05-13T08:40:27.354Z,2.13
2023-05-13T08:42:58.167Z,1.80
2023-05-13T08:45:30.178Z,1.38
2023-05-13T08:48:02.836Z,1.58
2023-05-13T08:50:31.808Z,1.45
2023-05-13T08:53:00.743Z,2.60
2023-05-13T08:55:29.679Z,1.55
2023-05-13T08:57:58.186Z,1.60
2023-05-13T09:00:26.818Z,1.65
2023-05-13T09:02:55.319Z,1.13
2023-05-13T09:05:25.804Z,1.60
2023-05-13T09:07:55.472Z,1.75
2023-05-13T09:10:24.135Z,1.50
2023-05-13T09:12:54.218Z,1.92
2023-05-13T09:15:24.779Z,1.40
2023-05-13T09:17:56.506Z,1.45
2023-05-13T09:20:27.012Z,1.85
2023-05-13T09:22:57.791Z,1.33
2023-05-13T09:25:27.056Z,1.38
2023-05-13T09:27:58.715Z,1.20
2023-05-13T09:30:28.367Z,1.08
2023-05-13T09:33:09.937Z,1.05
2023-05-13T09:35:43.343Z,0.95
2023-05-13T09:38:17.256Z,1.10
2023-05-13T09:40:52.812Z,0.98
2023-05-13T09:43:22.889Z,1.20
2023-05-13T09:45:55.055Z,1.20
2023-05-13T09:48:23.943Z,1.23
2023-05-13T09:50:53.706Z,1.30
2023-05-13T09:53:22.583Z,1.35
2023-05-13T09:55:52.870Z,1.08
2023-05-13T09:58:22.484Z,1.00
2023-05-13T10:00:52.936Z,1.30
2023-05-13T10:03:22.730Z,1.15
2023-05-13T10:05:53.587Z,1.38
2023-05-13T10:08:23.037Z,1.33
2023-05-13T10:10:55.027Z,1.00
2023-05-13T10:13:26.282Z,1.10
2023-05-13T10:15:56.379Z,1.08
2023-05-13T10:18:25.000Z,1.52
2023-05-13T10:20:55.610Z,1.20
2023-05-13T10:23:25.054Z,1.20
2023-05-13T10:25:56.252Z,1.20
2023-05-13T10:28:25.769Z,1.13
2023-05-13T10:30:54.128Z,1.33
2023-05-13T10:33:23.140Z,1.20
2023-05-13T10:36:07.255Z,0.95
2023-05-13T10:38:54.170Z,0.98
2023-05-13T10:41:57.817Z,1.67
2023-05-13T10:44:26.493Z,1.33
2023-05-13T10:46:57.657Z,1.25
2023-05-13T10:49:33.549Z,1.42
2023-05-13T10:52:09.825Z,1.52
2023-05-13T10:54:40.480Z,1.40
2023-05-13T10:57:09.012Z,1.30
2023-05-13T10:59:38.798Z,1.63
2023-05-13T11:02:23.236Z,1.42
2023-05-13T11:05:02.026Z,1.55
2023-05-13T11:07:31.825Z,1.13
2023-05-13T11:10:01.149Z,1.10
2023-05-13T11:12:29.733Z,1.92
2023-05-13T11:14:58.582Z,1.30
2023-05-13T11:17:26.992Z,1.27
2023-05-13T11:19:55.578Z,1.55
2023-05-13T11:22:24.906Z,1.73
2023-05-13T11:25:09.069Z,1.42
2023-05-13T11:27:40.752Z,2.00
2023-05-13T11:30:23.108Z,1.45
2023-05-13T11:32:57.089Z,1.70
2023-05-13T11:35:27.448Z,1.38
2023-05-13T11:37:59.141Z,1.38
2023-05-13T11:40:32.638Z,1.70
2023-05-13T11:43:02.423Z,1.63
2023-05-13T11:45:31.943Z,1.60
2023-05-13T11:48:18.450Z,1.65
2023-05-13T11:50:46.885Z,1.70
2023-05-13T11:53:22.194Z,1.73
2023-05-13T11:55:51.941Z,1.48
2023-05-13T11:58:22.529Z,1.90
2023-05-13T12:00:51.877Z,2.15
2023-05-13T12:03:20.518Z,2.03
2023-05-13T12:05:49.281Z,3.10
2023-05-13T12:08:17.801Z,1.98
2023-05-13T12:10:46.638Z,1.60
2023-05-13T12:13:16.478Z,1.52
2023-05-13T12:15:45.258Z,1.48
2023-05-13T12:18:14.382Z,1.73
2023-05-13T12:20:42.633Z,1.50
2023-05-13T12:23:12.964Z,1.42
2023-05-13T12:25:45.211Z,1.20
2023-05-13T12:28:20.460Z,1.23
2023-05-13T12:30:53.861Z,1.60
2023-05-13T12:33:24.524Z,1.23
2023-05-13T12:35:54.926Z,1.58
2023-05-13T12:38:25.491Z,1.52
2023-05-13T12:40:55.057Z,1.92
2023-05-13T12:43:24.827Z,1.40
2023-05-13T12:45:56.488Z,1.90
2023-05-13T12:48:26.506Z,2.22
2023-05-13T12:50:56.270Z,1.50
2023-05-13T12:53:25.177Z,1.48
2023-05-13T12:55:53.533Z,1.67
2023-05-13T12:58:22.123Z,1.45
2023-05-13T13:00:51.812Z,1.65
2023-05-13T13:03:23.212Z,1.70
2023-05-13T13:05:53.117Z,1.48
2023-05-13T13:08:21.803Z,1.33
2023-05-13T13:10:50.031Z,1.08
2023-05-13T13:13:18.252Z,1.40
2023-05-13T13:15:46.888Z,1.38
2023-05-13T13:18:16.432Z,1.00
2023-05-13T13:20:45.074Z,1.10
2023-05-13T13:23:13.578Z,1.30
2023-05-13T13:25:42.137Z,1.13
2023-05-13T13:28:10.978Z,1.40
2023-05-13T13:30:45.565Z,1.08
2023-05-13T13:35:45.555Z,1.27
2023-05-13T13:38:14.066Z,1.17
2023-05-13T13:40:42.515Z,1.23
2023-05-13T13:43:11.032Z,0.95
2023-05-13T13:45:40.144Z,1.40
2023-05-13T13:48:09.059Z,1.35
2023-05-13T13:50:38.686Z,1.60
2023-05-13T13:53:06.908Z,1.70
2023-05-13T13:55:35.235Z,1.50
2023-05-13T13:58:03.752Z,1.52
2023-05-13T14:00:32.257Z,1.55
2023-05-13T14:03:02.513Z,1.67
2023-05-13T14:05:31.318Z,1.58
2023-05-13T14:08:00.906Z,2.15
2023-05-13T14:10:29.529Z,1.70
2023-05-13T14:12:58.024Z,1.40
2023-05-13T14:15:28.814Z,2.08
2023-05-13T14:17:57.169Z,1.73
2023-05-13T14:20:25.984Z,1.60
2023-05-13T14:22:54.162Z,1.50
2023-05-13T14:25:23.750Z,1.65
2023-05-13T14:27:52.284Z,1.48
2023-05-13T14:30:20.964Z,1.65
2023-05-13T14:32:49.623Z,1.77
2023-05-13T14:35:18.810Z,1.63
2023-05-13T14:37:46.979Z,1.50
2023-05-13T14:40:15.566Z,1.80
2023-05-13T14:42:45.445Z,1.90
2023-05-13T14:45:16.914Z,1.88
2023-05-13T14:47:47.267Z,1.90
2023-05-13T14:50:16.018Z,1.80
2023-05-13T14:52:44.283Z,1.88
2023-05-13T14:55:12.867Z,1.35
2023-05-13T14:57:41.584Z,1.90
2023-05-13T15:00:13.138Z,1.73
2023-05-13T15:02:41.835Z,2.22
2023-05-13T15:05:11.216Z,2.00
2023-05-13T15:07:39.786Z,1.77
2023-05-13T15:10:09.226Z,1.92
2023-05-13T15:12:37.817Z,1.90
2023-05-13T15:15:07.832Z,1.70
2023-05-13T15:17:37.788Z,1.70
2023-05-13T15:20:07.548Z,1.80
2023-05-13T15:22:36.047Z,1.38
2023-05-13T15:25:04.855Z,1.60
2023-05-13T15:27:33.094Z,1.58
2023-05-13T15:30:01.689Z,1.45
2023-05-13T15:32:30.984Z,1.52
2023-05-13T15:35:00.597Z,1.73
2023-05-13T15:37:28.847Z,2.20
2023-05-13T15:39:57.038Z,1.88
2023-05-13T15:42:25.687Z,1.40
2023-05-13T15:44:54.189Z,1.73
2023-05-13T15:47:22.865Z,1.67
2023-05-13T15:49:54.086Z,1.83
2023-05-13T15:52:23.671Z,1.50
2023-05-13T15:54:52.196Z,1.33
2023-05-13T15:57:20.777Z,1.63
2023-05-13T15:59:49.257Z,2.25
2023-05-13T16:02:18.591Z,2.00
2023-05-13T16:04:46.949Z,1.80
2023-05-13T16:07:15.338Z,1.92
2023-05-13T16:09:44.931Z,2.03
2023-05-13T16:12:13.190Z,1.90
2023-05-13T16:14:41.701Z,1.90
2023-05-13T16:17:10.735Z,1.50
2023-05-13T16:19:38.969Z,1.63
2023-05-13T16:22:30.179Z,2.08
2023-05-13T16:25:03.072Z,1.13
2023-05-13T16:27:31.984Z,1.50
2023-05-13T16:30:02.065Z,1.20
2023-05-13T16:32:31.074Z,1.60
2023-05-13T16:35:01.556Z,1.27
2023-05-13T16:37:30.354Z,1.73
2023-05-13T16:40:00.419Z,1.15
2023-05-13T16:42:29.013Z,1.20
2023-05-13T16:44:57.501Z,1.20
2023-05-13T16:47:26.076Z,1.40
2023-05-13T16:49:56.040Z,1.60
2023-05-13T16:52:24.744Z,1.95
2023-05-13T16:54:53.609Z,1.65
2023-05-13T16:57:23.244Z,1.63
2023-05-13T16:59:51.812Z,1.60
2023-05-13T17:02:20.496Z,1.27
2023-05-13T17:04:48.677Z,1.58
2023-05-13T17:07:16.882Z,1.40
2023-05-13T17:09:45.613Z,1.80
2023-05-13T17:12:14.383Z,1.58
2023-05-13T17:14:44.184Z,1.83
2023-05-13T17:17:12.742Z,2.08
2023-05-13T17:19:42.503Z,1.65
2023-05-13T17:22:11.022Z,1.42
2023-05-13T17:24:39.801Z,2.00
2023-05-13T17:27:08.773Z,1.80
2023-05-13T17:29:37.475Z,1.60
2023-05-13T17:32:08.252Z,1.58
2023-05-13T17:34:36.861Z,1.55
2023-05-13T17:37:05.477Z,1.30
2023-05-13T17:39:34.001Z,1.42
2023-05-13T17:42:02.496Z,1.75
2023-05-13T17:44:31.007Z,1.40
2023-05-13T17:46:59.572Z,1.70
2023-05-13T17:49:29.209Z,1.27
2023-05-13T17:51:57.730Z,1.80
2023-05-13T17:54:26.195Z,1.52
2023-05-13T17:56:54.708Z,1.55
2023-05-13T17:59:23.226Z,1.90
2023-05-13T18:01:51.771Z,2.25
2023-05-13T18:04:20.343Z,1.60
2023-05-13T18:06:49.954Z,1.95
2023-05-13T18:09:18.465Z,1.90
2023-05-13T18:11:47.070Z,1.50
2023-05-13T18:14:15.277Z,1.55
2023-05-13T18:16:43.605Z,1.63
2023-05-13T18:19:12.307Z,1.70
2023-05-13T18:21:40.714Z,1.65
2023-05-13T18:24:10.525Z,1.90
2023-05-13T18:26:39.030Z,1.60
2023-05-13T18:29:07.675Z,1.83
2023-05-13T18:31:36.188Z,1.40
2023-05-13T18:34:04.987Z,1.30
2023-05-13T18:36:33.725Z,1.40
2023-05-13T18:39:02.248Z,1.25
2023-05-13T18:41:31.797Z,1.50
2023-05-13T18:44:00.041Z,1.50
2023-05-13T18:46:28.861Z,1.60
2023-05-13T18:48:58.838Z,1.30
2023-05-13T18:51:27.325Z,1.50
2023-05-13T18:53:55.910Z,1.88
2023-05-13T18:56:24.626Z,1.52
2023-05-13T18:58:54.523Z,1.40
2023-05-13T19:01:23.102Z,1.60
2023-05-13T19:03:52.816Z,1.45
2023-05-13T19:06:21.445Z,1.60
2023-05-13T19:08:49.971Z,1.95
2023-05-13T19:11:18.453Z,1.55
2023-05-13T19:13:47.710Z,1.92
2023-05-13T19:16:19.720Z,2.08
2023-05-13T19:18:48.058Z,2.38
2023-05-13T19:21:16.614Z,1.63
2023-05-13T19:23:45.359Z,1.48
2023-05-13T19:26:13.901Z,2.33
2023-05-13T19:28:43.752Z,2.00
2023-05-13T19:31:12.305Z,1.67
2023-05-13T19:33:43.407Z,1.88
2023-05-13T19:36:12.975Z,1.40
2023-05-13T19:38:41.516Z,1.80
2023-05-13T19:41:10.047Z,1.70
2023-05-13T19:43:38.537Z,2.13
2023-05-13T19:46:06.924Z,2.15
2023-05-13T19:48:35.176Z,1.67
2023-05-13T19:51:05.007Z,1.98
2023-05-13T19:53:33.553Z,2.83
2023-05-13T19:56:02.140Z,2.05
2023-05-13T19:58:30.726Z,2.42
2023-05-13T20:00:59.209Z,2.10
2023-05-13T20:03:27.532Z,1.95
2023-05-13T20:05:56.148Z,2.13
2023-05-13T20:08:25.842Z,1.83
2023-05-13T20:10:54.010Z,2.00
2023-05-13T20:13:22.521Z,2.15
2023-05-13T20:15:50.830Z,1.88
2023-05-13T20:18:19.394Z,2.60
2023-05-13T20:20:48.045Z,2.40
2023-05-13T20:23:16.631Z,2.20
2023-05-13T20:25:47.545Z,2.22
2023-05-13T20:28:16.357Z,2.17
2023-05-13T20:30:44.556Z,1.85
2023-05-13T20:33:14.827Z,2.42
2023-05-13T20:35:43.053Z,2.30
2023-05-13T20:38:11.448Z,3.00
2023-05-13T20:40:39.964Z,4.55
2023-05-13T20:43:09.546Z,4.15
2023-05-13T20:45:39.659Z,3.00
2023-05-13T20:48:09.130Z,3.50
2023-05-13T20:50:37.824Z,3.45
2023-05-13T20:53:06.023Z,2.47
2023-05-13T20:55:34.247Z,2.40
2023-05-13T20:58:02.749Z,2.85
2023-05-13T21:00:32.333Z,2.55
2023-05-13T21:03:01.437Z,3.10
2023-05-13T21:05:30.032Z,2.58
2023-05-13T21:07:58.664Z,2.75
2023-05-13T21:10:26.890Z,2.88
2023-05-13T21:12:55.381Z,2.83
2023-05-13T21:15:23.907Z,2.83
2023-05-13T21:17:54.306Z,2.88
2023-05-13T21:20:22.816Z,3.17
2023-05-13T21:22:51.623Z,3.42
2023-05-13T21:25:20.141Z,3.05
2023-05-13T21:27:49.878Z,3.38
2023-05-13T21:30:18.388Z,2.83
2023-05-13T21:32:46.652Z,3.03
2023-05-13T21:35:16.502Z,3.15
2023-05-13T21:37:47.067Z,3.22
2023-05-13T21:40:16.299Z,2.97
2023-05-13T21:42:44.783Z,3.00
2023-05-13T21:45:14.984Z,3.00
2023-05-13T21:47:43.387Z,3.72
2023-05-13T21:50:12.135Z,3.63
2023-05-13T21:52:41.707Z,3.85
2023-05-13T21:55:11.137Z,3.03
2023-05-13T21:57:39.678Z,3.70
2023-05-13T22:00:14.977Z,3.30
2023-05-13T22:02:44.930Z,3.55
2023-05-13T22:05:14.081Z,3.28
2023-05-13T22:07:44.036Z,2.88
2023-05-13T22:10:12.920Z,2.30
2023-05-13T22:12:41.497Z,3.03
2023-05-13T22:15:11.535Z,3.15
2023-05-13T22:17:40.217Z,2.97
2023-05-13T22:20:09.973Z,2.55
2023-05-13T22:22:38.461Z,2.75
2023-05-13T22:25:09.180Z,2.35
2023-05-13T22:27:37.765Z,2.58
2023-05-13T22:30:07.332Z,2.70
2023-05-13T22:32:38.244Z,2.65
2023-05-13T22:35:08.414Z,2.85
2023-05-13T22:37:36.957Z,2.60
2023-05-13T22:40:08.035Z,2.85
2023-05-13T22:42:36.319Z,2.53
2023-05-13T22:45:05.496Z,2.58
2023-05-13T22:47:34.271Z,2.60
2023-05-13T22:50:03.043Z,2.60
2023-05-13T22:52:31.609Z,3.10
2023-05-13T22:55:00.150Z,3.33
2023-05-13T22:57:30.297Z,2.85
2023-05-13T22:59:58.831Z,3.03
2023-05-13T23:02:27.207Z,3.25
2023-05-13T23:04:55.731Z,3.38
2023-05-13T23:07:24.339Z,2.85
2023-05-13T23:09:52.562Z,2.90
2023-05-13T23:12:22.201Z,2.35
2023-05-13T23:14:51.998Z,3.03
2023-05-13T23:17:20.568Z,3.22
2023-05-13T23:19:48.763Z,3.33
2023-05-13T23:22:17.362Z,2.92
2023-05-13T23:24:45.893Z,2.92
2023-05-13T23:27:14.414Z,3.15
2023-05-13T23:29:43.112Z,2.97
2023-05-13T23:32:12.698Z,2.88
2023-05-13T23:34:41.173Z,3.45
2023-05-13T23:37:09.724Z,3.35
2023-05-13T23:39:38.299Z,3.63
2023-05-13T23:42:06.957Z,4.15
2023-05-13T23:44:35.457Z,4.35
2023-05-13T23:47:04.585Z,3.88
2023-05-13T23:49:34.206Z,4.13
2023-05-13T23:52:02.938Z,4.57
2023-05-13T23:54:31.450Z,4.18
2023-05-13T23:56:59.938Z,3.85
2023-05-13T23:59:28.818Z,4.10
